Time;durP1;ratioP1;P1;durP2;ratioP2;P2;SDS_P1;SDS_P2;PMS_P1;PMS_P2;Temp;Humidity;BMP_temperature;BMP_pressure;BME280_temperature;BME280_humidity;BME280_pressure;Samples;Min_cycle;Max_cycle;Signal;HPM_P1;HPM_P2
2023/01/01 00:02:09;;;;;;;14.38;9.82;;;13.60;62.40;;;9.68;84.03;96074.69;4956423;28;20022;-52
2023/01/01 00:04:35;;;;;;;20.05;12.80;;;13.70;62.30;;;9.69;83.56;96084.28;4971621;28;20045;-54
2023/01/01 00:07:04;;;;;;;16.38;10.30;;;13.80;62.20;;;9.79;83.01;96078.28;4967336;28;20041;-54
2023/01/01 00:12:16;;;;;;;17.20;10.23;;;14.00;62.20;;;10.18;80.33;96070.19;4958136;28;20060;-54
2023/01/01 00:14:45;;;;;;;20.08;11.10;;;14.10;62.10;;;10.36;79.81;96064.56;4972926;28;20061;-57
2023/01/01 00:17:10;;;;;;;17.48;10.85;;;14.20;62.00;;;10.47;79.34;96064.69;4972554;28;20075;-53
2023/01/01 00:19:39;;;;;;;18.77;12.15;;;14.40;61.80;;;10.61;78.69;96055.22;4974086;28;20432;-55
2023/01/01 00:22:05;;;;;;;23.88;15.52;;;14.50;61.60;;;10.91;77.18;96075.22;4973568;28;20034;-57
2023/01/01 00:24:39;;;;;;;24.95;15.85;;;14.60;61.30;;;10.94;77.39;96072.84;4971754;28;20034;-55
2023/01/01 00:27:04;;;;;;;22.67;15.13;;;14.80;61.20;;;10.94;77.06;96086.16;4973216;28;20489;-56
2023/01/01 00:29:31;;;;;;;26.42;15.93;;;14.90;60.90;;;10.94;77.44;96082.69;4954591;28;20080;-55
2023/01/01 00:32:01;;;;;;;28.02;17.65;;;14.90;60.60;;;10.93;77.52;96078.41;4956161;28;20030;-53
2023/01/01 00:34:26;;;;;;;24.30;16.92;;;15.00;60.40;;;10.97;77.13;96079.50;4973433;28;20110;-55
2023/01/01 00:36:52;;;;;;;28.33;17.17;;;15.00;60.20;;;10.98;77.38;96078.44;4972468;28;20113;-55
2023/01/01 00:39:18;;;;;;;26.33;16.10;;;15.00;60.00;;;11.00;77.40;96071.00;4956110;28;20084;-58
2023/01/01 00:41:44;;;;;;;23.77;15.13;;;15.10;60.00;;;11.02;77.68;96077.69;4939116;28;20121;-53
2023/01/01 00:44:10;;;;;;;19.92;12.88;;;15.10;59.90;;;11.10;78.35;96074.56;4954229;28;20050;-55
2023/01/01 00:46:38;;;;;;;20.58;14.52;;;15.20;59.90;;;11.16;78.22;96074.59;4972504;28;20110;-55
2023/01/01 00:49:03;;;;;;;19.65;14.00;;;15.30;60.00;;;11.16;78.02;96067.41;4971271;28;20031;-56
2023/01/01 00:51:32;;;;;;;21.20;13.85;;;15.30;59.80;;;11.16;78.28;96069.25;4968828;28;20046;-55
2023/01/01 00:53:58;;;;;;;19.33;13.50;;;15.30;59.80;;;11.13;78.46;96072.44;4970685;28;20552;-54
2023/01/01 00:56:29;;;;;;;24.58;15.65;;;15.40;59.80;;;11.09;78.75;96061.47;4972160;28;20037;-57
2023/01/01 00:58:58;;;;;;;22.42;15.85;;;15.40;59.70;;;11.10;78.68;96063.09;4971279;28;20026;-51
2023/01/01 01:01:26;;;;;;;18.42;12.07;;;15.30;59.70;;;11.11;78.65;96065.47;4939076;28;20029;-53
2023/01/01 01:03:52;;;;;;;18.85;11.57;;;15.40;59.70;;;11.20;78.69;96063.16;4971795;28;20032;-54
2023/01/01 01:06:20;;;;;;;18.08;10.82;;;15.40;59.70;;;11.26;78.24;96066.66;4971675;28;20034;-53
2023/01/01 01:08:51;;;;;;;14.48;10.35;;;15.40;59.80;;;11.28;78.19;96070.69;4972354;28;20034;-54
2023/01/01 01:11:33;;;;;;;12.98;8.52;;;15.40;60.40;;;11.28;78.24;96056.53;4959411;28;20022;-56
2023/01/01 01:14:05;;;;;;;13.75;8.57;;;15.40;59.70;;;11.29;78.43;96066.16;4972403;28;20404;-57
2023/01/01 01:16:34;;;;;;;11.38;7.93;;;15.40;59.70;;;11.30;78.45;96059.75;4955938;28;20057;-57
2023/01/01 01:19:04;;;;;;;12.68;9.07;;;15.40;59.70;;;11.25;78.79;96062.38;4938389;28;20141;-55
2023/01/01 01:21:37;;;;;;;20.10;12.68;;;15.50;59.70;;;11.07;79.79;96053.72;4971185;28;20612;-56
2023/01/01 01:24:03;;;;;;;15.63;10.23;;;15.40;59.60;;;10.93;80.29;96055.22;4971288;28;20045;-56
2023/01/01 01:26:33;;;;;;;16.35;10.77;;;15.30;60.20;;;10.80;80.77;96064.44;4958005;28;20042;-53
2023/01/01 01:28:59;;;;;;;13.50;9.82;;;15.20;59.60;;;10.70;81.08;96059.03;4951893;28;20113;-55
2023/01/01 01:31:33;;;;;;;15.38;8.98;;;15.10;59.60;;;10.56;82.32;96074.63;4960841;28;20049;-55
2023/01/01 01:34:00;;;;;;;12.52;8.57;;;15.00;59.70;;;10.51;82.46;96074.56;4952851;28;20121;-53
2023/01/01 01:36:41;;;;;;;12.45;8.63;;;14.90;59.80;;;10.40;82.35;96073.69;4951072;28;20030;-54
2023/01/01 01:39:11;;;;;;;13.32;8.55;;;14.80;59.90;;;10.30;82.84;96083.41;4953387;28;20026;-58
2023/01/01 01:41:43;;;;;;;14.60;8.98;;;14.80;60.00;;;10.18;83.03;96078.19;4952710;28;20426;-55
2023/01/01 01:44:46;;;;;;;12.27;8.07;;;14.60;60.00;;;9.92;84.42;96071.78;4952652;28;20041;-54
2023/01/01 01:48:05;;;;;;;16.35;9.27;;;14.50;60.10;;;9.78;85.22;96076.69;4952675;28;20022;-58
2023/01/01 01:50:43;;;;;;;14.77;8.95;;;14.30;60.30;;;9.65;85.38;96077.00;4923108;28;20432;-54
2023/01/01 01:53:22;;;;;;;14.20;8.93;;;14.20;60.40;;;9.49;86.02;96070.69;4950840;28;20022;-56
2023/01/01 01:56:04;;;;;;;14.07;9.52;;;14.10;60.60;;;9.36;86.32;96071.84;4950414;28;20027;-52
2023/01/01 01:58:39;;;;;;;16.70;9.45;;;13.90;60.70;;;9.18;87.84;96074.78;4967123;28;20038;-54
2023/01/01 02:01:05;;;;;;;14.77;9.48;;;13.80;60.90;;;9.12;87.85;96073.09;4971508;28;20380;-53
2023/01/01 02:03:58;;;;;;;15.95;10.10;;;13.70;61.00;;;9.06;87.85;96080.19;4951151;28;20023;-54
2023/01/01 02:06:28;;;;;;;15.05;9.65;;;13.60;61.30;;;8.95;88.30;96078.41;4950922;28;20026;-56
2023/01/01 02:09:03;;;;;;;13.18;9.32;;;13.50;61.40;;;8.82;89.16;96079.53;4951187;28;20030;-56
2023/01/01 02:11:30;;;;;;;13.00;8.30;;;13.40;61.60;;;8.80;89.27;96084.28;4966056;28;20114;-54
2023/01/01 02:13:59;;;;;;;13.38;9.15;;;13.20;61.70;;;8.72;89.43;96082.84;4950699;28;20030;-56
2023/01/01 02:17:02;;;;;;;11.48;8.32;;;13.20;62.00;;;8.72;89.68;96079.38;4967352;28;20381;-58
2023/01/01 02:20:39;;;;;;;12.25;8.23;;;13.10;62.30;;;8.63;89.12;96081.63;4965291;28;20039;-55
2023/01/01 02:24:15;;;;;;;15.73;9.75;;;13.10;62.30;;;8.33;90.93;96071.22;4950513;28;20015;-54
2023/01/01 02:26:52;;;;;;;14.15;9.32;;;12.90;62.30;;;8.27;91.94;96077.47;4955531;28;20061;-52
2023/01/01 02:29:53;;;;;;;15.00;9.18;;;12.80;62.50;;;8.16;91.95;96081.81;4951687;28;20117;-52
2023/01/01 02:32:45;;;;;;;13.40;8.45;;;12.70;62.60;;;7.97;92.60;96081.19;4954754;28;20021;-56
2023/01/01 02:35:50;;;;;;;12.50;8.45;;;12.60;62.80;;;7.86;94.10;96079.34;4953069;28;20026;-55
2023/01/01 02:38:51;;;;;;;11.40;7.25;;;12.50;63.00;;;7.86;94.21;96082.00;4959145;28;20033;-55
2023/01/01 02:41:42;;;;;;;11.68;7.35;;;12.40;63.30;;;7.96;94.08;96089.34;4953049;28;20041;-55
2023/01/01 02:44:12;;;;;;;13.35;7.93;;;12.40;63.60;;;7.94;93.22;96088.81;4953448;28;20026;-53
2023/01/01 02:46:40;;;;;;;12.00;7.50;;;12.40;63.60;;;7.86;93.71;96084.66;4968664;28;20133;-55
2023/01/01 02:49:12;;;;;;;11.77;7.32;;;12.40;63.60;;;7.83;93.98;96096.56;4972079;28;20121;-53
2023/01/01 02:52:17;;;;;;;10.20;7.07;;;12.30;63.80;;;7.84;95.65;96092.88;4970830;28;20441;-54
2023/01/01 02:55:24;;;;;;;14.55;6.88;;;12.30;64.00;;;7.99;94.98;96097.69;4947581;28;20026;-52
2023/01/01 03:01:39;;;;;;;8.50;6.35;;;12.30;64.30;;;8.03;94.49;96085.53;4956711;28;20049;-55
2023/01/01 03:05:07;;;;;;;9.77;6.28;;;12.30;64.40;;;8.10;93.33;96091.50;4963688;28;20378;-54
2023/01/01 03:08:18;;;;;;;10.38;6.05;;;12.40;64.30;;;8.10;94.25;96096.03;4954162;28;20092;-55
2023/01/01 03:11:04;;;;;;;10.85;6.47;;;12.40;64.40;;;8.15;93.88;96090.81;4970294;28;20500;-55
2023/01/01 03:14:05;;;;;;;8.90;5.60;;;12.40;64.60;;;8.17;93.94;96094.03;4965596;28;20033;-51
2023/01/01 03:17:55;;;;;;;8.43;5.93;;;12.50;64.70;;;8.28;93.73;96100.34;4971606;28;20041;-56
2023/01/01 03:20:31;;;;;;;9.13;5.65;;;12.50;64.70;;;8.40;94.08;96098.47;4951906;28;20129;-56
2023/01/01 03:23:17;;;;;;;7.85;4.68;;;12.60;64.80;;;8.57;93.76;96107.28;4954010;28;20026;-52
2023/01/01 03:25:56;;;;;;;8.13;4.72;;;12.80;65.10;;;8.78;93.17;96099.66;4955385;28;20093;-55
2023/01/01 03:28:36;;;;;;;6.45;4.13;;;12.90;65.90;;;9.06;92.00;96098.81;4966727;28;20046;-53
2023/01/01 03:31:07;;;;;;;10.60;4.93;;;13.10;65.30;;;9.20;91.09;96112.56;4947475;28;20026;-53
2023/01/01 03:33:45;;;;;;;5.43;3.55;;;13.30;65.20;;;9.44;90.03;96099.88;4950210;28;20018;-52
2023/01/01 03:36:23;;;;;;;5.05;3.92;;;13.40;65.10;;;9.64;89.30;96105.47;4958297;28;20445;-57
2023/01/01 03:39:10;;;;;;;7.97;4.20;;;13.70;65.00;;;9.89;86.70;96104.22;4936324;29;20034;-54
2023/01/01 03:42:38;;;;;;;5.70;4.10;;;13.90;64.80;;;10.02;85.87;96098.50;4950255;29;20058;-53
2023/01/01 03:45:24;;;;;;;6.93;4.40;;;14.00;64.30;;;10.09;85.10;96111.63;4938875;29;20030;-56
2023/01/01 03:47:51;;;;;;;7.22;4.78;;;14.20;64.00;;;10.12;84.53;96105.81;4949730;28;20106;-55
2023/01/01 03:50:24;;;;;;;8.73;5.35;;;14.30;63.60;;;10.24;83.23;96111.81;4950720;29;20057;-51
2023/01/01 03:53:25;;;;;;;7.45;5.00;;;14.40;63.40;;;10.41;81.72;96107.25;4966927;28;20027;-52
2023/01/01 03:56:27;;;;;;;8.02;5.97;;;14.50;63.10;;;10.53;81.22;96108.94;4948035;28;20394;-54
2023/01/01 03:59:36;;;;;;;8.93;6.20;;;14.60;62.80;;;10.58;81.09;96112.47;4965938;28;20081;-52
2023/01/01 04:02:11;;;;;;;10.77;6.40;;;14.70;62.60;;;10.60;80.89;96117.56;4938912;28;20444;-52
2023/01/01 04:04:37;;;;;;;9.30;5.80;;;14.80;62.40;;;10.61;80.60;96109.28;4949047;29;20034;-54
2023/01/01 04:07:04;;;;;;;10.50;6.57;;;14.80;62.10;;;10.61;80.90;96122.63;4916140;29;20612;-57
2023/01/01 04:09:37;;;;;;;11.18;6.63;;;14.80;61.90;;;10.60;80.61;96126.34;4949980;29;20355;-53
2023/01/01 04:12:05;;;;;;;12.43;6.57;;;14.90;61.70;;;10.64;79.97;96113.31;4948768;29;20787;-54
2023/01/01 04:14:47;;;;;;;13.88;7.13;;;14.90;61.60;;;10.70;79.70;96114.97;4949435;28;20045;-54
2023/01/01 04:17:13;;;;;;;9.90;6.82;;;14.90;61.40;;;10.74;80.00;96108.09;4949888;28;20093;-56
2023/01/01 04:19:49;;;;;;;11.60;6.80;;;15.00;61.40;;;10.70;79.84;96107.00;4953729;28;20441;-52
2023/01/01 04:22:16;;;;;;;9.63;6.78;;;15.00;61.20;;;10.63;80.33;96107.19;4950679;29;20031;-55
2023/01/01 04:24:42;;;;;;;9.40;6.32;;;14.90;61.00;;;10.58;81.08;96111.66;4948829;28;20058;-53
2023/01/01 04:27:08;;;;;;;10.18;6.68;;;14.90;61.00;;;10.54;81.26;96103.38;4959422;28;20137;-57
2023/01/01 04:29:35;;;;;;;7.97;6.05;;;14.90;61.00;;;10.47;81.80;96100.13;4970981;28;20026;-58
2023/01/01 04:32:01;;;;;;;9.70;6.20;;;14.80;60.90;;;10.39;82.50;96103.22;4972615;28;20017;-58
2023/01/01 04:34:26;;;;;;;8.18;6.18;;;14.80;61.00;;;10.30;82.22;96102.84;4971869;28;20026;-57
2023/01/01 04:36:55;;;;;;;10.82;7.00;;;14.70;60.90;;;10.23;82.50;96094.22;4973188;28;20026;-56
2023/01/01 04:39:21;;;;;;;9.10;6.65;;;14.70;60.90;;;10.14;82.95;96093.06;4955973;28;20083;-56
2023/01/01 04:41:52;;;;;;;7.80;5.65;;;14.60;61.00;;;10.08;83.55;96088.72;4977493;28;20416;-56
2023/01/01 04:44:20;;;;;;;9.93;5.20;;;14.50;61.00;;;10.06;83.98;96089.00;4973270;28;20612;-56
2023/01/01 04:46:46;;;;;;;6.07;4.20;;;14.40;61.30;;;10.19;83.18;96096.59;4955840;28;20037;-57
2023/01/01 04:49:20;;;;;;;5.72;3.47;;;14.40;61.50;;;10.38;82.82;96113.06;4973951;28;20038;-56
2023/01/01 04:51:48;;;;;;;5.18;3.08;;;14.40;61.70;;;10.59;81.78;96102.59;4973174;28;20393;-56
2023/01/01 04:54:14;;;;;;;3.45;2.70;;;14.50;61.90;;;10.76;80.92;96105.19;4971821;28;20026;-55
2023/01/01 04:56:45;;;;;;;4.50;2.55;;;14.60;62.00;;;10.90;80.25;96109.03;4972967;28;20022;-58
2023/01/01 04:59:11;;;;;;;5.50;2.38;;;14.70;62.00;;;11.05;79.77;96103.03;4955542;28;20030;-56
2023/01/01 05:01:37;;;;;;;3.53;2.40;;;14.80;61.90;;;11.19;78.95;96114.88;4981779;28;20042;-54
2023/01/01 05:04:06;;;;;;;4.18;2.15;;;14.90;61.80;;;11.24;78.76;96104.25;4971645;28;20053;-56
2023/01/01 05:06:36;;;;;;;3.13;2.08;;;15.00;61.60;;;11.25;79.04;96100.53;4953742;28;20129;-58
2023/01/01 05:09:07;;;;;;;4.15;1.90;;;15.10;61.40;;;11.25;78.63;96100.53;4972320;28;20068;-57
2023/01/01 05:11:33;;;;;;;3.65;2.35;;;15.20;61.20;;;11.26;78.91;96106.66;4974917;28;20072;-57
2023/01/01 05:14:04;;;;;;;3.97;2.38;;;15.20;61.10;;;11.21;78.79;96110.06;4955333;28;20030;-56
2023/01/01 05:16:37;;;;;;;3.10;1.90;;;15.20;60.90;;;11.27;78.75;96114.41;4955374;28;20477;-56
2023/01/01 05:19:08;;;;;;;3.47;2.20;;;15.30;60.80;;;11.39;78.34;96114.22;4962952;28;20034;-58
2023/01/01 05:21:39;;;;;;;4.65;2.08;;;15.30;60.80;;;11.40;78.13;96107.81;4971430;28;20026;-56
2023/01/01 05:24:12;;;;;;;4.45;2.10;;;15.30;60.70;;;11.37;78.17;96129.66;4954098;28;20037;-53
2023/01/01 05:26:43;;;;;;;2.90;1.83;;;15.40;60.60;;;11.35;78.40;96131.81;4951273;28;20034;-53
2023/01/01 05:29:10;;;;;;;5.22;2.08;;;15.40;60.50;;;11.34;78.81;96128.34;4952153;28;20130;-58
2023/01/01 05:31:36;;;;;;;4.00;1.98;;;15.40;60.40;;;11.39;78.27;96126.75;4951609;28;20366;-55
2023/01/01 05:34:06;;;;;;;3.25;1.75;;;15.40;60.30;;;11.42;78.18;96126.25;4951505;28;20027;-57
2023/01/01 05:36:37;;;;;;;2.72;1.90;;;15.50;60.30;;;11.46;77.97;96116.66;4955994;28;20031;-54
2023/01/01 05:39:10;;;;;;;3.80;1.98;;;15.50;60.20;;;11.56;76.96;96128.22;4951956;28;20080;-54
2023/01/01 05:41:39;;;;;;;3.00;1.80;;;15.50;60.10;;;11.68;76.84;96124.53;4952926;28;20080;-55
2023/01/01 05:44:08;;;;;;;2.53;1.63;;;15.50;60.10;;;11.74;76.34;96118.16;4955580;28;20035;-56
2023/01/01 05:46:40;;;;;;;2.53;1.63;;;15.60;60.00;;;11.77;75.72;96123.78;4967268;28;20015;-53
2023/01/01 05:49:13;;;;;;;2.17;1.60;;;15.70;60.00;;;11.90;75.21;96125.22;4954467;28;20509;-52
2023/01/01 05:51:39;;;;;;;4.70;1.90;;;15.70;59.80;;;11.89;75.58;96136.97;4952656;28;20121;-57
2023/01/01 05:54:05;;;;;;;2.67;1.77;;;15.70;59.70;;;11.85;74.94;96130.53;4956355;28;20026;-56
2023/01/01 05:56:31;;;;;;;3.10;1.80;;;15.80;59.60;;;11.89;75.27;96138.84;4935292;28;20118;-54
2023/01/01 05:59:00;;;;;;;4.30;1.60;;;15.80;59.50;;;11.90;75.43;96135.09;4934773;28;20053;-55
2023/01/01 06:01:30;;;;;;;5.07;1.88;;;15.80;59.40;;;11.84;75.47;96136.09;4976171;28;20061;-56
2023/01/01 06:03:59;;;;;;;2.35;1.80;;;15.90;59.40;;;11.76;75.65;96129.41;4952027;28;20030;-55
2023/01/01 06:06:34;;;;;;;2.90;2.17;;;15.90;59.30;;;11.71;75.76;96135.50;4967075;28;20106;-57
2023/01/01 06:09:04;;;;;;;3.85;2.00;;;15.80;59.20;;;11.76;75.76;96145.41;4950662;28;20088;-54
2023/01/01 06:11:35;;;;;;;3.47;1.80;;;15.90;59.20;;;11.77;75.32;96133.66;4953945;28;20023;-56
2023/01/01 06:14:04;;;;;;;6.13;2.28;;;15.90;59.10;;;11.78;75.26;96143.28;4950843;28;20390;-53
2023/01/01 06:16:31;;;;;;;7.47;2.15;;;15.90;59.10;;;11.86;74.01;96134.81;4941159;28;20019;-54
2023/01/01 06:18:58;;;;;;;3.72;1.90;;;15.80;59.00;;;11.99;73.61;96146.91;4955868;28;20156;-53
2023/01/01 06:21:27;;;;;;;3.38;1.80;;;15.90;59.00;;;12.10;72.60;96151.22;4927427;29;20019;-55
2023/01/01 06:23:57;;;;;;;4.40;1.98;;;15.90;58.80;;;12.18;71.52;96137.38;4948434;28;20037;-52
2023/01/01 06:26:37;;;;;;;4.90;2.00;;;16.00;58.70;;;12.28;71.24;96144.59;4954551;28;20038;-53
2023/01/01 06:29:03;;;;;;;2.40;1.45;;;16.10;58.60;;;12.40;70.56;96152.41;4954740;28;20397;-53
2023/01/01 06:31:30;;;;;;;2.05;1.60;;;16.10;58.30;;;12.39;70.94;96156.97;4951049;28;20521;-57
2023/01/01 06:33:59;;;;;;;2.10;1.38;;;16.20;58.30;;;12.30;71.43;96153.19;4953525;28;20490;-54
2023/01/01 06:36:26;;;;;;;2.53;1.50;;;16.20;58.20;;;12.25;71.18;96145.97;4960528;28;20075;-54
2023/01/01 06:38:57;;;;;;;5.13;1.67;;;16.20;58.00;;;12.25;71.39;96145.13;4953864;28;20037;-52
2023/01/01 06:41:26;;;;;;;3.72;1.40;;;16.20;57.80;;;12.34;70.76;96151.59;4971239;28;20465;-55
2023/01/01 06:43:57;;;;;;;3.50;1.50;;;16.20;57.70;;;12.37;70.66;96152.94;4974173;28;20469;-54
2023/01/01 06:46:34;;;;;;;3.47;1.70;;;16.30;57.70;;;12.35;71.13;96147.88;4970650;28;20050;-53
2023/01/01 06:49:11;;;;;;;3.80;1.48;;;16.30;57.70;;;12.29;71.26;96148.09;4968662;28;20100;-55
2023/01/01 06:51:42;;;;;;;5.68;1.95;;;16.20;57.50;;;12.22;71.68;96156.34;4957526;28;20030;-54
2023/01/01 06:54:10;;;;;;;2.70;1.60;;;16.30;57.50;;;12.16;71.97;96163.53;4964905;28;20022;-55
2023/01/01 06:56:39;;;;;;;3.58;1.40;;;16.20;57.50;;;12.06;71.74;96157.34;4969545;28;20029;-53
2023/01/01 06:59:06;;;;;;;2.97;1.88;;;16.20;57.50;;;12.08;71.67;96164.03;4968971;28;20536;-55
2023/01/01 07:01:40;;;;;;;2.40;1.60;;;16.20;57.50;;;12.02;72.08;96162.41;4953053;28;20199;-54
2023/01/01 07:04:15;;;;;;;4.88;1.90;;;16.10;57.50;;;11.95;72.23;96151.16;4969510;28;20080;-53
2023/01/01 07:06:43;;;;;;;2.35;1.60;;;16.10;58.10;;;11.87;72.58;96163.09;4969546;28;20093;-54
2023/01/01 07:09:12;;;;;;;2.60;1.67;;;16.00;57.40;;;11.77;72.82;96165.69;4921663;28;20041;-53
2023/01/01 07:11:44;;;;;;;2.83;1.75;;;16.00;57.50;;;11.65;73.28;96163.22;4973259;28;20025;-56
2023/01/01 07:14:10;;;;;;;3.00;1.83;;;15.90;57.50;;;11.58;73.76;96173.31;4965803;28;20038;-56
2023/01/01 07:16:36;;;;;;;4.45;1.80;;;15.80;57.60;;;11.53;74.23;96176.75;4948235;28;20022;-57
2023/01/01 07:19:04;;;;;;;5.75;1.95;;;15.80;57.70;;;11.48;73.68;96171.38;4969699;28;20822;-57
2023/01/01 07:21:53;;;;;;;2.22;1.65;;;15.70;57.70;;;11.39;74.25;96166.75;4970420;28;20388;-53
2023/01/01 07:24:19;;;;;;;3.25;1.60;;;15.70;57.70;;;11.44;74.00;96172.13;4942848;28;20560;-53
2023/01/01 07:26:45;;;;;;;3.83;1.67;;;15.60;57.80;;;11.43;74.15;96165.19;4952810;28;20133;-57
2023/01/01 07:29:13;;;;;;;3.55;1.60;;;15.60;57.80;;;11.38;74.19;96176.63;4970533;28;20026;-55
2023/01/01 07:31:42;;;;;;;2.85;1.88;;;15.60;57.80;;;11.29;74.44;96178.16;4941897;28;20054;-53
2023/01/01 07:34:17;;;;;;;5.07;1.95;;;15.60;57.90;;;11.20;75.03;96183.16;4933569;28;20026;-57
2023/01/01 07:36:43;;;;;;;2.72;1.65;;;15.50;57.80;;;11.13;75.16;96185.22;4951693;28;20392;-52
2023/01/01 07:39:09;;;;;;;4.75;1.80;;;15.50;57.90;;;11.13;74.99;96198.56;4969993;28;20037;-59
2023/01/01 07:41:36;;;;;;;3.35;1.92;;;15.50;57.90;;;11.15;75.08;96195.63;4951810;28;20044;-59
2023/01/01 07:44:02;;;;;;;3.15;1.70;;;15.50;58.00;;;11.15;75.63;96201.75;4952174;28;20153;-58
2023/01/01 07:46:29;;;;;;;2.22;1.67;;;15.50;58.10;;;11.09;75.35;96202.75;4968516;28;20022;-57
2023/01/01 07:48:55;;;;;;;6.68;1.70;;;15.50;58.00;;;11.14;75.22;96204.69;4967602;28;20154;-57
2023/01/01 07:51:21;;;;;;;3.90;1.83;;;15.50;58.00;;;11.20;75.20;96204.47;4888828;28;25004;-58
2023/01/01 07:53:47;;;;;;;3.40;1.85;;;15.50;58.10;;;11.19;74.29;96216.22;4967134;28;20390;-57
2023/01/01 07:56:16;;;;;;;2.78;2.10;;;15.50;58.10;;;11.23;74.69;96205.84;4969957;28;20019;-57
2023/01/01 07:58:44;;;;;;;3.65;2.25;;;15.50;58.00;;;11.25;74.86;96204.53;4952173;28;20030;-54
2023/01/01 08:01:13;;;;;;;4.80;2.45;;;15.60;58.00;;;11.21;74.79;96216.75;4968597;28;20385;-55
2023/01/01 08:03:39;;;;;;;2.90;2.00;;;15.60;57.90;;;11.23;74.32;96214.63;4969173;28;20533;-54
2023/01/01 08:06:12;;;;;;;3.00;1.77;;;15.60;57.80;;;11.26;74.96;96206.13;4954910;28;20456;-52
2023/01/01 08:08:39;;;;;;;3.05;1.60;;;15.60;57.80;;;11.26;74.40;96203.47;4970706;28;20045;-52
2023/01/01 08:11:08;;;;;;;3.65;1.65;;;15.70;57.80;;;11.28;73.99;96206.69;4953479;28;20033;-56
2023/01/01 08:13:34;;;;;;;2.53;1.88;;;15.70;57.80;;;11.30;74.33;96204.56;4959030;28;20045;-54
2023/01/01 08:16:03;;;;;;;5.97;2.60;;;15.70;57.80;;;11.29;74.14;96204.81;4961865;28;20429;-57
2023/01/01 08:18:29;;;;;;;2.17;1.80;;;15.70;57.60;;;11.28;73.78;96201.38;4952745;28;20069;-57
2023/01/01 08:21:02;;;;;;;4.82;2.30;;;15.80;57.60;;;11.29;75.16;96197.63;4953675;28;20097;-56
2023/01/01 08:23:28;;;;;;;4.03;2.00;;;15.80;57.60;;;11.29;73.32;96186.16;4968649;28;20389;-56
2023/01/01 08:26:01;;;;;;;2.88;1.70;;;15.80;57.50;;;11.41;73.23;96196.66;4942440;28;20026;-57
2023/01/01 08:28:29;;;;;;;4.03;2.10;;;15.90;57.50;;;11.58;72.17;96200.00;4926651;28;20221;-56
2023/01/01 08:30:55;;;;;;;6.13;1.85;;;15.90;57.40;;;11.69;72.19;96198.19;4941819;28;20030;-53
2023/01/01 08:33:21;;;;;;;3.72;1.60;;;16.00;57.30;;;11.74;72.69;96201.69;4952564;28;20437;-55
2023/01/01 08:35:52;;;;;;;3.70;1.90;;;16.10;57.30;;;11.77;72.27;96197.72;4944842;28;20390;-58
2023/01/01 08:38:18;;;;;;;2.55;1.50;;;16.10;57.10;;;11.81;72.05;96188.97;4948375;28;20018;-58
2023/01/01 08:40:44;;;;;;;2.38;1.60;;;16.20;57.00;;;11.85;71.97;96194.63;4951566;28;20512;-56
2023/01/01 08:43:10;;;;;;;2.47;1.73;;;16.30;57.00;;;11.94;72.20;96197.56;4947219;28;20022;-58
2023/01/01 08:45:35;;;;;;;4.55;1.90;;;16.30;56.90;;;12.02;70.65;96192.56;4955893;28;20398;-56
2023/01/01 08:48:05;;;;;;;2.75;1.70;;;16.40;56.70;;;12.12;71.04;96201.69;4946180;28;20022;-57
2023/01/01 08:50:31;;;;;;;3.67;1.67;;;16.50;56.60;;;12.20;70.30;96209.22;4937456;28;20050;-57
2023/01/01 08:52:59;;;;;;;3.17;2.00;;;16.60;56.60;;;12.24;69.96;96218.31;4934043;29;20066;-54
2023/01/01 08:55:26;;;;;;;2.05;1.60;;;16.60;56.30;;;12.27;69.16;96213.25;4951586;28;20058;-52
2023/01/01 08:57:54;;;;;;;2.30;1.75;;;16.70;56.20;;;12.34;69.46;96223.72;4953864;28;20015;-56
2023/01/01 09:00:20;;;;;;;2.53;1.77;;;16.80;56.00;;;12.42;69.05;96215.22;4952981;28;20030;-56
2023/01/01 09:02:46;;;;;;;4.10;2.30;;;16.90;55.90;;;12.51;68.89;96223.53;4937596;28;21001;-51
2023/01/01 09:05:12;;;;;;;3.20;1.90;;;16.90;55.70;;;12.54;68.41;96224.88;4951049;28;20031;-55
2023/01/01 09:07:38;;;;;;;2.92;1.73;;;17.00;55.60;;;12.60;68.11;96229.19;4948398;28;20029;-57
2023/01/01 09:10:05;;;;;;;3.55;1.60;;;17.10;55.40;;;12.66;67.65;96230.78;4947296;28;20027;-58
2023/01/01 09:12:31;;;;;;;5.43;1.98;;;17.20;55.30;;;12.75;67.42;96229.22;4962154;28;20054;-57
2023/01/01 09:14:57;;;;;;;3.85;1.90;;;17.30;55.20;;;12.76;68.42;96233.53;4949907;28;20540;-56
2023/01/01 09:17:23;;;;;;;2.22;1.65;;;17.30;55.10;;;12.82;68.27;96224.47;4939265;28;20178;-55
2023/01/01 09:20:06;;;;;;;6.75;2.20;;;17.40;55.00;;;12.92;68.53;96235.19;4948190;28;20098;-57
2023/01/01 09:22:44;;;;;;;3.63;2.03;;;17.50;54.90;;;13.06;68.19;96235.47;4950717;28;20046;-53
2023/01/01 09:25:16;;;;;;;2.38;1.88;;;17.70;54.70;;;13.14;67.08;96237.63;4951826;28;20038;-57
2023/01/01 09:27:42;;;;;;;3.58;1.80;;;17.90;54.50;;;13.26;66.76;96244.66;4965902;28;20045;-54
2023/01/01 09:30:12;;;;;;;1.95;1.50;;;18.10;54.30;;;13.42;66.08;96241.72;4967536;28;20477;-54
2023/01/01 09:32:38;;;;;;;2.95;1.88;;;18.30;54.00;;;13.50;65.44;96243.06;4953320;28;20041;-53
2023/01/01 09:35:05;;;;;;;4.68;2.00;;;18.50;53.60;;;13.59;65.16;96248.69;4948621;28;20053;-53
2023/01/01 09:37:33;;;;;;;3.13;1.65;;;18.60;53.40;;;13.67;64.63;96253.50;4961721;28;20528;-53
2023/01/01 09:39:59;;;;;;;2.08;1.80;;;18.70;53.30;;;13.76;64.74;96251.13;4970641;28;20022;-58
2023/01/01 09:43:01;;;;;;;3.90;2.28;;;18.80;53.00;;;13.87;63.80;96242.78;4967057;28;20088;-56
2023/01/01 09:45:39;;;;;;;2.95;1.60;;;18.90;52.80;;;13.91;63.95;96244.94;4937092;28;20504;-56
2023/01/01 09:48:12;;;;;;;3.15;1.92;;;19.10;52.70;;;13.89;63.86;96242.53;4986032;28;20144;-54
2023/01/01 09:50:45;;;;;;;4.00;1.88;;;19.20;52.40;;;14.04;63.76;96245.19;4935932;28;20022;-52
2023/01/01 09:53:57;;;;;;;3.75;2.00;;;19.30;52.10;;;14.15;63.05;96239.81;4961701;28;20054;-52
2023/01/01 09:56:30;;;;;;;3.75;2.08;;;19.40;52.00;;;14.25;62.85;96243.25;4946033;28;20034;-54
2023/01/01 09:58:58;;;;;;;7.68;2.38;;;19.70;51.80;;;14.32;62.07;96245.66;4946841;28;20030;-57
2023/01/01 10:02:22;;;;;;;6.78;2.42;;;19.90;52.10;;;14.59;62.72;96248.03;4947337;28;20497;-54
2023/01/01 10:05:36;;;;;;;5.38;2.13;;;20.20;50.90;;;14.88;60.65;96240.13;4958544;28;20046;-53
2023/01/01 10:08:39;;;;;;;3.67;1.92;;;20.60;50.60;;;15.02;59.41;96226.94;4945938;28;20025;-52
2023/01/01 10:11:32;;;;;;;6.30;1.70;;;20.90;50.10;;;15.17;59.81;96234.09;4940853;28;20037;-57
2023/01/01 10:14:12;;;;;;;;;;;21.10;49.70;;;15.25;58.78;96220.88;4968418;28;20026;-55
2023/01/01 10:16:48;;;;;;;4.28;1.90;;;21.20;50.00;;;15.49;58.27;96226.34;4972840;28;19913;-54
2023/01/01 10:19:50;;;;;;;3.88;1.75;;;21.40;49.20;;;15.44;58.49;96214.84;4951385;28;20023;-58
2023/01/01 10:22:30;;;;;;;7.50;2.35;;;21.40;48.90;;;15.44;59.00;96218.31;4967665;28;20503;-56
2023/01/01 10:25:02;;;;;;;8.00;2.00;;;21.40;48.80;;;15.54;58.18;96200.53;4961124;28;20042;-57
2023/01/01 10:27:40;;;;;;;;;;;21.50;48.60;;;15.79;58.08;96203.03;4951046;28;20125;-54
2023/01/01 10:30:20;;;;;;;4.70;2.08;;;21.70;49.20;;;16.01;57.13;96199.88;4964927;28;20327;-57
2023/01/01 10:32:55;;;;;;;4.50;2.33;;;22.00;48.50;;;16.24;56.53;96198.31;4933868;28;20108;-58
2023/01/01 10:35:47;;;;;;;5.65;2.20;;;22.20;48.10;;;16.50;55.69;96190.75;4965999;28;20030;-56
2023/01/01 10:38:28;;;;;;;4.80;2.50;;;22.50;47.90;;;16.78;54.64;96191.78;4969815;28;20037;-56
2023/01/01 10:41:20;;;;;;;4.32;2.08;;;22.90;47.50;;;16.99;54.20;96192.31;4953852;28;20034;-53
2023/01/01 10:43:48;;;;;;;4.63;1.90;;;23.20;46.90;;;17.05;54.15;96193.84;4946203;28;20045;-56
2023/01/01 10:46:27;;;;;;;4.88;2.65;;;23.50;46.50;;;17.19;53.18;96185.84;4937730;28;20030;-56
2023/01/01 10:49:13;;;;;;;4.10;2.35;;;23.70;45.60;;;17.46;52.39;96187.84;4941518;28;20088;-55
2023/01/01 10:51:58;;;;;;;3.72;2.28;;;23.80;45.30;;;17.68;52.35;96184.53;4959486;28;20038;-59
2023/01/01 10:54:38;;;;;;;3.03;2.40;;;24.10;45.00;;;17.79;51.87;96172.50;4969960;28;20026;-59
2023/01/01 10:57:38;;;;;;;3.08;2.00;;;24.30;44.50;;;17.90;51.05;96175.84;4942752;28;20061;-59